createdAt,value
2018-05-17T00:01:51.893Z,82.16
2018-05-17T00:04:19.381Z,83.42
2018-05-17T00:06:46.884Z,83.37
2018-05-17T00:09:14.397Z,83.57
2018-05-17T00:11:41.916Z,84.27
2018-05-17T00:14:09.445Z,82.73
2018-05-17T00:16:36.969Z,82.80
2018-05-17T00:19:04.456Z,83.12
2018-05-17T00:21:31.972Z,82.70
2018-05-17T00:23:59.488Z,82.86
2018-05-17T00:26:27.029Z,82.60
2018-05-17T00:28:54.540Z,82.88
2018-05-17T00:31:22.036Z,82.23
2018-05-17T00:33:49.557Z,82.19
2018-05-17T00:36:17.057Z,82.55
2018-05-17T00:38:44.581Z,82.77
2018-05-17T00:41:12.135Z,82.96
2018-05-17T00:43:39.632Z,83.05
2018-05-17T00:46:07.124Z,82.76
2018-05-17T00:48:34.657Z,83.28
2018-05-17T00:51:02.173Z,82.11
2018-05-17T00:53:31.720Z,83.49
2018-05-17T00:55:59.221Z,82.87
2018-05-17T00:58:26.720Z,82.95
2018-05-17T01:00:54.224Z,83.27
2018-05-17T01:03:22.105Z,83.32
2018-05-17T01:05:49.616Z,83.59
2018-05-17T01:08:17.105Z,84.46
2018-05-17T01:10:44.836Z,84.09
2018-05-17T01:13:12.328Z,82.97
2018-05-17T01:15:39.821Z,83.54
2018-05-17T01:18:07.349Z,84.14
2018-05-17T01:20:34.837Z,83.26
2018-05-17T01:23:02.336Z,83.18
2018-05-17T01:28:02.566Z,83.13
2018-05-17T01:30:30.519Z,83.44
2018-05-17T01:32:58.035Z,83.09
2018-05-17T01:35:25.529Z,83.41
2018-05-17T01:38:04.761Z,83.24
2018-05-17T01:40:32.249Z,82.82
2018-05-17T01:42:59.743Z,82.10
2018-05-17T01:45:27.257Z,82.37
2018-05-17T01:47:54.771Z,81.89
2018-05-17T01:50:22.285Z,81.50
2018-05-17T01:52:49.802Z,81.89
2018-05-17T01:55:17.304Z,81.37
2018-05-17T01:57:44.799Z,81.62
2018-05-17T02:00:12.547Z,81.41
2018-05-17T02:02:40.055Z,81.45
2018-05-17T02:05:07.541Z,82.04
2018-05-17T02:07:35.089Z,82.15
2018-05-17T02:10:02.589Z,81.75
2018-05-17T02:12:30.080Z,82.00
2018-05-17T02:14:57.800Z,81.86
2018-05-17T02:17:25.293Z,82.05
2018-05-17T02:19:52.842Z,81.74
2018-05-17T02:22:20.765Z,81.87
2018-05-17T02:24:48.252Z,81.32
2018-05-17T02:27:15.835Z,81.27
2018-05-17T02:29:43.522Z,81.60
2018-05-17T02:32:11.021Z,82.32
2018-05-17T02:34:38.526Z,80.89
2018-05-17T02:37:06.078Z,80.75
2018-05-17T02:39:33.573Z,81.15
2018-05-17T02:42:01.069Z,81.40
2018-05-17T02:44:28.759Z,80.70
2018-05-17T02:46:56.269Z,81.06
2018-05-17T02:49:23.765Z,81.70
2018-05-17T02:51:51.328Z,81.36
2018-05-17T02:54:18.828Z,81.43
2018-05-17T02:56:46.329Z,81.22
2018-05-17T02:59:13.840Z,81.46
2018-05-17T03:01:41.345Z,81.37
2018-05-17T03:04:09.131Z,81.49
2018-05-17T03:06:36.639Z,81.18
2018-05-17T03:09:06.924Z,81.18
2018-05-17T03:11:34.458Z,80.04
2018-05-17T03:14:01.954Z,80.57
2018-05-17T03:16:29.480Z,80.18
2018-05-17T03:18:57.027Z,80.07
2018-05-17T03:21:24.521Z,79.93
2018-05-17T03:23:52.041Z,79.56
2018-05-17T03:26:19.537Z,79.83
2018-05-17T03:28:47.076Z,79.90
2018-05-17T03:31:14.584Z,78.93
2018-05-17T03:33:42.092Z,79.03
2018-05-17T03:36:09.605Z,78.72
2018-05-17T03:38:37.105Z,78.64
2018-05-17T03:41:04.748Z,79.20
2018-05-17T03:43:32.257Z,79.01
2018-05-17T03:45:59.745Z,79.54
2018-05-17T03:48:27.268Z,78.29
2018-05-17T03:50:54.772Z,78.18
2018-05-17T03:53:22.321Z,77.67
2018-05-17T03:55:49.808Z,77.78
2018-05-17T03:58:17.300Z,78.57
2018-05-17T04:00:56.481Z,78.39
2018-05-17T04:03:35.924Z,77.92
2018-05-17T04:06:15.324Z,78.67
2018-05-17T04:08:42.857Z,78.70
2018-05-17T04:11:10.357Z,77.36
2018-05-17T04:13:37.857Z,76.98
2018-05-17T04:16:05.396Z,77.37
2018-05-17T04:18:32.904Z,78.04
2018-05-17T04:21:00.432Z,76.93
2018-05-17T04:23:27.921Z,76.30
2018-05-17T04:25:55.413Z,75.91
2018-05-17T04:28:22.945Z,75.65
2018-05-17T04:30:50.437Z,75.01
2018-05-17T04:33:18.108Z,75.61
2018-05-17T04:35:45.601Z,75.64
2018-05-17T04:38:13.094Z,75.73
2018-05-17T04:40:40.605Z,76.23
2018-05-17T04:43:08.106Z,76.26
2018-05-17T04:45:35.832Z,76.57
2018-05-17T04:48:03.328Z,76.59
2018-05-17T04:50:30.829Z,76.72
2018-05-17T04:52:58.345Z,76.57
2018-05-17T04:55:25.845Z,76.40
2018-05-17T04:57:53.437Z,76.17
2018-05-17T05:00:20.952Z,76.06
2018-05-17T05:02:48.455Z,76.22
2018-05-17T05:05:15.985Z,76.06
2018-05-17T05:07:43.488Z,75.85
2018-05-17T05:10:11.009Z,76.15
2018-05-17T05:12:38.546Z,75.93
2018-05-17T05:15:06.061Z,76.45
2018-05-17T05:17:33.577Z,75.66
2018-05-17T05:20:01.072Z,76.34
2018-05-17T05:22:28.789Z,76.31
2018-05-17T05:24:56.281Z,75.69
2018-05-17T05:27:23.773Z,75.25
2018-05-17T05:29:51.286Z,75.20
2018-05-17T05:32:18.801Z,75.08
2018-05-17T05:34:46.445Z,74.89
2018-05-17T05:37:13.961Z,74.83
2018-05-17T05:39:41.453Z,74.95
2018-05-17T05:42:08.993Z,74.34
2018-05-17T05:44:36.493Z,75.18
2018-05-17T05:47:04.105Z,74.32
2018-05-17T05:49:31.675Z,73.93
2018-05-17T05:51:59.129Z,74.29
2018-05-17T05:54:26.699Z,74.09
2018-05-17T05:56:54.185Z,74.06
2018-05-17T05:59:21.721Z,74.71
2018-05-17T06:01:49.209Z,74.31
2018-05-17T06:04:16.720Z,74.36
2018-05-17T06:06:44.256Z,75.23
2018-05-17T06:09:11.745Z,75.79
2018-05-17T06:11:39.517Z,74.36
2018-05-17T06:14:07.064Z,74.86
2018-05-17T06:16:34.565Z,74.11
2018-05-17T06:19:02.078Z,74.16
2018-05-17T06:21:29.605Z,74.08
2018-05-17T06:23:57.153Z,73.53
2018-05-17T06:26:24.662Z,73.80
2018-05-17T06:28:52.161Z,74.96
2018-05-17T06:31:19.686Z,74.27
2018-05-17T06:33:47.177Z,73.72
2018-05-17T06:36:14.840Z,73.28
2018-05-17T06:38:42.336Z,74.51
2018-05-17T06:41:09.829Z,73.73
2018-05-17T06:43:37.344Z,73.22
2018-05-17T06:46:04.936Z,72.02
2018-05-17T06:48:32.513Z,71.58
2018-05-17T06:51:00.009Z,71.21
2018-05-17T06:53:27.521Z,71.35
2018-05-17T06:55:55.039Z,70.71
2018-05-17T06:58:22.545Z,70.86
2018-05-17T07:00:50.251Z,71.48
2018-05-17T07:03:17.745Z,70.84
2018-05-17T07:05:45.279Z,69.68
2018-05-17T07:08:12.797Z,70.05
2018-05-17T07:10:40.289Z,69.63
2018-05-17T07:13:08.017Z,70.15
2018-05-17T07:15:35.530Z,69.55
2018-05-17T07:18:03.127Z,70.14
2018-05-17T07:20:30.566Z,68.81
2018-05-17T07:22:58.068Z,67.98
2018-05-17T07:25:25.651Z,67.64
2018-05-17T07:27:53.152Z,67.36
2018-05-17T07:30:20.654Z,67.74
2018-05-17T07:32:48.177Z,69.17
2018-05-17T07:35:15.664Z,68.15
2018-05-17T07:37:43.329Z,67.28
2018-05-17T07:40:10.831Z,68.11
2018-05-17T07:42:38.321Z,69.12
2018-05-17T07:45:05.835Z,68.35
2018-05-17T07:47:34.549Z,68.20
2018-05-17T07:50:02.070Z,67.10
2018-05-17T07:52:29.569Z,66.23
2018-05-17T07:54:57.057Z,66.50
2018-05-17T07:57:24.584Z,65.37
2018-05-17T07:59:52.091Z,63.48
2018-05-17T08:02:19.833Z,64.17
2018-05-17T08:04:47.329Z,63.70
2018-05-17T08:07:14.825Z,62.29
2018-05-17T08:09:42.340Z,62.63
2018-05-17T08:12:09.833Z,63.19
2018-05-17T08:14:37.381Z,61.12
2018-05-17T08:17:04.895Z,62.68
2018-05-17T08:19:32.384Z,60.62
2018-05-17T08:21:59.896Z,60.34
2018-05-17T08:24:27.418Z,61.00
2018-05-17T08:26:55.177Z,59.52
2018-05-17T08:29:22.685Z,59.10
2018-05-17T08:31:50.193Z,60.12
2018-05-17T08:34:17.730Z,59.23
2018-05-17T08:36:45.241Z,60.58
2018-05-17T08:39:12.783Z,59.89
2018-05-17T08:41:40.319Z,59.34
2018-05-17T08:44:07.809Z,59.33
2018-05-17T08:46:35.325Z,61.15
2018-05-17T08:49:02.824Z,60.74
2018-05-17T08:51:30.488Z,60.09
2018-05-17T08:53:58.066Z,60.46
2018-05-17T08:56:25.605Z,60.81
2018-05-17T08:58:53.148Z,61.52
2018-05-17T09:01:20.644Z,60.03
2018-05-17T09:03:48.340Z,60.06
2018-05-17T09:06:15.867Z,61.28
2018-05-17T09:08:43.369Z,61.21
2018-05-17T09:11:10.881Z,61.99
2018-05-17T09:13:38.407Z,60.46
2018-05-17T09:16:06.049Z,60.62
2018-05-17T09:18:33.556Z,59.59
2018-05-17T09:21:01.048Z,59.32
2018-05-17T09:23:28.561Z,59.29
2018-05-17T09:25:56.046Z,58.89
2018-05-17T09:28:23.588Z,59.58
2018-05-17T09:30:51.089Z,60.54
2018-05-17T09:33:18.588Z,59.22
2018-05-17T09:35:46.222Z,59.71
2018-05-17T09:38:13.626Z,58.66
2018-05-17T09:40:41.310Z,58.09
2018-05-17T09:43:08.809Z,58.31
2018-05-17T09:45:36.297Z,57.13
2018-05-17T09:48:03.842Z,57.48
2018-05-17T09:50:31.333Z,58.78
2018-05-17T09:52:59.177Z,57.47
2018-05-17T09:55:26.677Z,57.54
2018-05-17T09:57:54.169Z,58.00
2018-05-17T10:00:22.492Z,57.20
2018-05-17T10:02:49.989Z,56.25
2018-05-17T10:05:17.871Z,58.00
2018-05-17T10:07:45.361Z,59.29
2018-05-17T10:10:12.861Z,59.48
2018-05-17T10:12:40.401Z,59.46
2018-05-17T10:15:07.892Z,60.07
2018-05-17T10:17:35.420Z,59.54
2018-05-17T10:20:02.927Z,58.84
2018-05-17T10:22:30.417Z,57.92
2018-05-17T10:24:57.947Z,58.40
2018-05-17T10:27:25.440Z,58.21
2018-05-17T10:29:53.166Z,56.31
2018-05-17T10:32:20.656Z,58.47
2018-05-17T10:34:48.173Z,56.61
2018-05-17T10:37:15.681Z,55.23
2018-05-17T10:39:43.178Z,56.04
2018-05-17T10:42:10.933Z,56.17
2018-05-17T10:44:38.349Z,55.61
2018-05-17T10:47:05.845Z,55.50
2018-05-17T10:49:33.357Z,54.54
2018-05-17T10:52:00.886Z,56.02
2018-05-17T10:54:28.516Z,56.97
2018-05-17T10:56:55.945Z,55.67
2018-05-17T10:59:23.446Z,54.81
2018-05-17T11:01:50.961Z,54.75
2018-05-17T11:04:18.461Z,54.30
2018-05-17T11:06:46.257Z,55.47
2018-05-17T11:09:13.825Z,54.25
2018-05-17T11:11:41.333Z,55.90
2018-05-17T11:14:08.867Z,55.07
2018-05-17T11:16:36.362Z,53.01
2018-05-17T11:19:03.907Z,54.63
2018-05-17T11:21:31.406Z,54.40
2018-05-17T11:23:58.896Z,54.63
2018-05-17T11:26:26.409Z,54.46
2018-05-17T11:28:53.905Z,55.00
2018-05-17T11:31:21.441Z,52.67
2018-05-17T11:33:48.943Z,51.61
2018-05-17T11:36:16.453Z,53.83
2018-05-17T11:38:43.978Z,52.22
2018-05-17T11:41:11.477Z,50.87
2018-05-17T11:43:39.404Z,51.97
2018-05-17T11:46:06.896Z,51.85
2018-05-17T11:48:34.392Z,49.76
2018-05-17T11:51:01.909Z,51.03
2018-05-17T11:53:29.400Z,52.43
2018-05-17T11:55:56.929Z,50.25
2018-05-17T11:58:24.461Z,50.64
2018-05-17T12:00:51.953Z,51.12
2018-05-17T12:03:19.479Z,52.35
2018-05-17T12:05:46.994Z,50.26
2018-05-17T12:08:14.716Z,51.56
2018-05-17T12:10:42.232Z,50.13
2018-05-17T12:13:09.734Z,48.50
2018-05-17T12:15:37.284Z,46.88
2018-05-17T12:18:04.785Z,49.08
2018-05-17T12:20:32.309Z,51.85
2018-05-17T12:23:00.270Z,51.16
2018-05-17T12:25:27.781Z,50.10
2018-05-17T12:27:55.327Z,48.07
2018-05-17T12:30:22.824Z,47.83
2018-05-17T12:32:50.660Z,48.99
2018-05-17T12:35:18.164Z,49.46
2018-05-17T12:37:45.656Z,49.05
2018-05-17T12:40:13.338Z,49.40
2018-05-17T12:42:40.940Z,49.04
2018-05-17T12:45:08.505Z,51.35
2018-05-17T12:47:36.034Z,50.58
2018-05-17T12:50:03.571Z,49.58
2018-05-17T12:52:31.100Z,51.05
2018-05-17T12:54:58.595Z,50.27
2018-05-17T12:57:26.125Z,49.79
2018-05-17T12:59:53.616Z,50.52
2018-05-17T13:02:21.108Z,51.31
2018-05-17T13:04:48.641Z,49.76
2018-05-17T13:07:16.153Z,50.30
2018-05-17T13:09:43.921Z,49.09
2018-05-17T13:12:11.421Z,48.95
2018-05-17T13:14:38.914Z,48.81
2018-05-17T13:17:06.443Z,48.33
2018-05-17T13:19:33.937Z,49.29
2018-05-17T13:22:01.493Z,47.47
2018-05-17T13:24:29.020Z,48.24
2018-05-17T13:26:56.596Z,47.86
2018-05-17T13:29:24.133Z,48.19
2018-05-17T13:31:51.924Z,46.76
2018-05-17T13:34:19.464Z,48.31
2018-05-17T13:36:46.969Z,48.88
2018-05-17T13:39:14.457Z,49.57
2018-05-17T13:41:41.982Z,50.75
2018-05-17T13:44:09.490Z,51.75
2018-05-17T13:46:37.197Z,49.02
2018-05-17T13:49:04.878Z,50.33
2018-05-17T13:51:32.301Z,49.42
2018-05-17T13:53:59.817Z,49.58
2018-05-17T13:56:27.325Z,49.28
2018-05-17T13:58:54.856Z,48.78
2018-05-17T14:01:22.381Z,48.69
2018-05-17T14:03:49.875Z,48.35
2018-05-17T14:06:17.417Z,48.18
2018-05-17T14:08:44.917Z,47.54
2018-05-17T14:11:12.609Z,48.35
2018-05-17T14:13:40.116Z,48.60
2018-05-17T14:16:07.671Z,48.82
2018-05-17T14:18:35.185Z,48.74
2018-05-17T14:21:02.694Z,48.14
2018-05-17T14:23:30.377Z,48.05
2018-05-17T14:25:57.865Z,48.47
2018-05-17T14:28:25.378Z,46.72
2018-05-17T14:30:52.901Z,46.41
2018-05-17T14:33:20.396Z,46.27
2018-05-17T14:35:48.333Z,47.27
2018-05-17T14:38:15.846Z,47.12
2018-05-17T14:40:43.333Z,46.27
2018-05-17T14:43:10.854Z,45.36
2018-05-17T14:45:38.343Z,45.51
2018-05-17T14:48:06.296Z,45.78
2018-05-17T14:50:33.885Z,46.30
2018-05-17T14:53:01.402Z,45.19
2018-05-17T14:55:29.824Z,45.54
2018-05-17T14:57:57.305Z,45.03
2018-05-17T15:00:24.902Z,46.61
2018-05-17T15:02:52.415Z,45.27
2018-05-17T15:05:19.930Z,45.18
2018-05-17T15:07:47.497Z,46.25
2018-05-17T15:10:14.990Z,45.77
2018-05-17T15:12:42.847Z,47.30
2018-05-17T15:15:10.341Z,47.10
2018-05-17T15:17:37.837Z,47.28
2018-05-17T15:20:05.345Z,46.11
2018-05-17T15:22:32.837Z,46.54
2018-05-17T15:25:00.365Z,46.19
2018-05-17T15:27:27.971Z,46.75
2018-05-17T15:29:55.736Z,47.19
2018-05-17T15:32:23.278Z,46.49
2018-05-17T15:34:50.777Z,45.75
2018-05-17T15:37:18.550Z,45.88
2018-05-17T15:39:46.054Z,46.52
2018-05-17T15:42:13.616Z,45.96
2018-05-17T15:44:41.132Z,45.30
2018-05-17T15:47:08.637Z,44.12
2018-05-17T15:49:36.169Z,45.50
2018-05-17T15:52:03.686Z,44.90
2018-05-17T15:54:31.205Z,44.98
2018-05-17T15:56:58.750Z,45.49
2018-05-17T15:59:26.283Z,45.38
2018-05-17T16:01:53.973Z,45.11
2018-05-17T16:04:21.457Z,44.26
2018-05-17T16:06:48.945Z,44.55
2018-05-17T16:09:16.477Z,44.61
2018-05-17T16:11:43.974Z,44.14
2018-05-17T16:14:11.521Z,44.74
2018-05-17T16:16:39.015Z,45.64
2018-05-17T16:19:06.501Z,44.99
2018-05-17T16:21:34.007Z,44.19
2018-05-17T16:24:01.520Z,43.39
2018-05-17T16:26:29.397Z,44.28
2018-05-17T16:28:56.880Z,44.69
2018-05-17T16:31:24.361Z,44.56
2018-05-17T16:33:51.888Z,44.53
2018-05-17T16:36:19.377Z,44.26
2018-05-17T16:38:47.145Z,44.21
2018-05-17T16:41:14.633Z,44.17
2018-05-17T16:43:42.128Z,45.25
2018-05-17T16:46:09.638Z,44.92
2018-05-17T16:48:37.244Z,44.43
2018-05-17T16:51:05.046Z,44.52
2018-05-17T16:53:32.536Z,45.14
2018-05-17T16:56:00.041Z,45.01
2018-05-17T16:58:27.552Z,44.20
2018-05-17T17:00:55.044Z,44.36
2018-05-17T17:03:22.577Z,45.29
2018-05-17T17:05:50.065Z,45.86
2018-05-17T17:08:17.553Z,45.39
2018-05-17T17:10:45.077Z,45.50
2018-05-17T17:13:12.572Z,46.54
2018-05-17T17:15:40.457Z,45.47
2018-05-17T17:18:07.948Z,45.60
2018-05-17T17:20:35.438Z,46.09
2018-05-17T17:23:02.966Z,46.13
2018-05-17T17:25:30.453Z,45.87
2018-05-17T17:27:58.129Z,45.66
2018-05-17T17:30:25.618Z,46.44
2018-05-17T17:32:53.121Z,46.16
2018-05-17T17:35:20.649Z,46.19
2018-05-17T17:37:48.146Z,46.22
2018-05-17T17:40:15.713Z,46.62
2018-05-17T17:42:43.205Z,46.71
2018-05-17T17:45:10.707Z,47.95
2018-05-17T17:47:38.236Z,46.94
2018-05-17T17:50:05.727Z,47.25
2018-05-17T17:52:33.489Z,47.46
2018-05-17T17:55:00.980Z,48.41
2018-05-17T17:57:28.486Z,48.97
2018-05-17T17:59:56.001Z,47.91
2018-05-17T18:02:23.508Z,47.42
2018-05-17T18:04:51.278Z,47.84
2018-05-17T18:07:18.765Z,48.02
2018-05-17T18:09:46.275Z,48.15
2018-05-17T18:12:13.801Z,47.99
2018-05-17T18:14:41.329Z,47.86
2018-05-17T18:17:09.027Z,48.37
2018-05-17T18:19:36.517Z,48.49
2018-05-17T18:22:04.027Z,48.67
2018-05-17T18:24:31.565Z,48.92
2018-05-17T18:26:59.066Z,48.63
2018-05-17T18:29:26.605Z,48.80
2018-05-17T18:31:54.440Z,48.45
2018-05-17T18:34:22.246Z,48.61
2018-05-17T18:36:49.832Z,49.60
2018-05-17T18:39:17.417Z,48.60
2018-05-17T18:41:45.260Z,49.07
2018-05-17T18:44:12.830Z,50.09
2018-05-17T18:46:40.321Z,49.80
2018-05-17T18:49:07.847Z,50.39
2018-05-17T18:51:35.387Z,51.73
2018-05-17T18:54:03.511Z,51.76
2018-05-17T18:56:31.427Z,52.95
2018-05-17T18:58:59.409Z,54.42
2018-05-17T19:01:27.499Z,54.63
2018-05-17T19:03:55.534Z,55.78
2018-05-17T19:06:23.857Z,56.33
2018-05-17T19:08:52.367Z,57.96
2018-05-17T19:11:20.756Z,57.12
2018-05-17T19:13:48.947Z,58.36
2018-05-17T19:16:17.417Z,59.81
2018-05-17T19:18:45.618Z,59.75
2018-05-17T19:21:13.799Z,61.05
2018-05-17T19:23:41.889Z,61.46
2018-05-17T19:26:09.866Z,60.99
2018-05-17T19:28:38.262Z,61.98
2018-05-17T19:31:06.448Z,62.86
2018-05-17T19:33:34.832Z,62.02
2018-05-17T19:36:03.028Z,62.58
2018-05-17T19:38:31.012Z,63.77
2018-05-17T19:40:59.096Z,64.63
2018-05-17T19:43:27.383Z,66.05
2018-05-17T19:45:55.048Z,66.49
2018-05-17T19:48:24.813Z,67.38
2018-05-17T19:50:53.418Z,68.77
2018-05-17T19:53:21.664Z,70.16
2018-05-17T19:55:50.053Z,70.00
2018-05-17T19:58:18.044Z,70.87
2018-05-17T20:00:46.324Z,70.75
2018-05-17T20:03:14.618Z,71.21
2018-05-17T20:05:42.906Z,71.33
2018-05-17T20:08:11.324Z,71.49
2018-05-17T20:10:39.279Z,71.60
2018-05-17T20:13:07.667Z,71.82
2018-05-17T20:15:35.255Z,72.15
2018-05-17T20:18:02.872Z,72.55
2018-05-17T20:20:30.892Z,72.52
2018-05-17T20:22:59.772Z,73.29
2018-05-17T20:25:27.565Z,73.31
2018-05-17T20:27:55.132Z,73.42
2018-05-17T20:30:22.662Z,73.01
2018-05-17T20:32:50.203Z,73.88
2018-05-17T20:35:17.702Z,73.61
2018-05-17T20:37:45.201Z,74.10
2018-05-17T20:40:12.736Z,74.50
2018-05-17T20:42:40.230Z,74.42
2018-05-17T20:45:07.916Z,75.03
2018-05-17T20:47:35.417Z,74.98
2018-05-17T20:50:02.921Z,75.77
2018-05-17T20:52:30.424Z,75.65
2018-05-17T20:54:57.927Z,76.33
2018-05-17T20:57:25.576Z,76.49
2018-05-17T20:59:53.143Z,75.95
2018-05-17T21:02:20.662Z,76.63
2018-05-17T21:04:48.185Z,76.28
2018-05-17T21:07:15.704Z,76.34
2018-05-17T21:09:43.631Z,76.09
2018-05-17T21:12:11.130Z,77.75
2018-05-17T21:14:38.646Z,77.62
2018-05-17T21:17:06.158Z,77.63
2018-05-17T21:19:33.652Z,77.19
2018-05-17T21:22:01.181Z,77.66
2018-05-17T21:24:28.669Z,76.90
2018-05-17T21:26:56.253Z,76.82
2018-05-17T21:29:23.777Z,76.19
2018-05-17T21:31:51.269Z,77.00
2018-05-17T21:34:18.866Z,76.31
2018-05-17T21:36:46.361Z,76.64
2018-05-17T21:39:13.849Z,77.40
2018-05-17T21:41:41.374Z,77.01
2018-05-17T21:44:08.865Z,76.82
2018-05-17T21:46:36.419Z,77.08
2018-05-17T21:49:03.941Z,77.97
2018-05-17T21:51:31.427Z,77.48
2018-05-17T21:53:58.941Z,77.92
2018-05-17T21:56:26.429Z,78.00
2018-05-17T21:58:54.164Z,78.38
2018-05-17T22:01:21.656Z,78.44
2018-05-17T22:03:49.153Z,78.36
2018-05-17T22:06:16.700Z,78.71
2018-05-17T22:08:44.188Z,78.71
2018-05-17T22:11:11.757Z,78.08
2018-05-17T22:13:39.244Z,78.14
2018-05-17T22:16:06.730Z,78.73
2018-05-17T22:18:34.243Z,78.14
2018-05-17T22:21:01.729Z,79.41
2018-05-17T22:23:29.445Z,79.81
2018-05-17T22:25:56.937Z,79.28
2018-05-17T22:28:24.557Z,79.77
2018-05-17T22:30:52.075Z,79.61
2018-05-17T22:33:19.569Z,78.53
2018-05-17T22:35:47.092Z,78.91
2018-05-17T22:38:14.616Z,79.45
2018-05-17T22:40:42.104Z,80.30
2018-05-17T22:43:09.613Z,79.68
2018-05-17T22:45:37.109Z,80.02
2018-05-17T22:48:04.777Z,79.22
2018-05-17T22:50:32.266Z,78.14
2018-05-17T22:53:00.109Z,78.17
2018-05-17T22:55:27.631Z,78.85
2018-05-17T22:58:06.960Z,78.75
2018-05-17T23:00:34.487Z,78.94
2018-05-17T23:03:01.973Z,78.96
2018-05-17T23:05:29.473Z,78.98
2018-05-17T23:07:57.011Z,79.03
2018-05-17T23:10:24.517Z,78.87
2018-05-17T23:12:52.169Z,78.20
2018-05-17T23:15:19.654Z,78.14
2018-05-17T23:17:47.161Z,78.35
2018-05-17T23:20:14.712Z,77.92
2018-05-17T23:22:42.197Z,78.99
2018-05-17T23:25:09.841Z,78.21
2018-05-17T23:27:37.348Z,78.43
2018-05-17T23:30:04.833Z,78.57
2018-05-17T23:32:32.363Z,78.35
2018-05-17T23:34:59.849Z,78.80
2018-05-17T23:37:27.385Z,78.76
2018-05-17T23:39:54.868Z,79.63
2018-05-17T23:42:22.371Z,80.43
2018-05-17T23:44:49.900Z,80.88
2018-05-17T23:47:17.401Z,80.58
2018-05-17T23:49:45.149Z,80.12
2018-05-17T23:52:12.637Z,80.86
2018-05-17T23:54:40.124Z,81.04
2018-05-17T23:57:07.648Z,80.53
2018-05-17T23:59:35.138Z,80.75
